createdAt,value
2023-03-28T00:01:07.487Z,3.14
2023-03-28T00:03:36.329Z,3.09
2023-03-28T00:06:05.614Z,3.12
2023-03-28T00:08:33.583Z,3.14
2023-03-28T00:11:04.490Z,3.12
2023-03-28T00:13:33.611Z,3.22
2023-03-28T00:16:05.743Z,3.31
2023-03-28T00:18:38.992Z,3.41
2023-03-28T00:21:09.985Z,3.33
2023-03-28T00:23:37.306Z,3.31
2023-03-28T00:26:08.632Z,3.31
2023-03-28T00:28:37.979Z,3.24
2023-03-28T00:31:05.822Z,3.21
2023-03-28T00:33:33.178Z,3.32
2023-03-28T00:36:00.653Z,3.23
2023-03-28T00:38:28.654Z,3.27
2023-03-28T00:40:57.646Z,3.26
2023-03-28T00:43:40.083Z,3.28
2023-03-28T00:46:09.668Z,3.33
2023-03-28T00:48:37.526Z,3.40
2023-03-28T00:51:05.607Z,3.39
2023-03-28T00:53:33.872Z,3.46
2023-03-28T00:56:04.146Z,3.36
2023-03-28T00:58:32.922Z,3.39
2023-03-28T01:01:01.664Z,3.30
2023-03-28T01:03:30.859Z,3.35
2023-03-28T01:05:58.990Z,3.41
2023-03-28T01:08:29.243Z,3.40
2023-03-28T01:10:56.591Z,3.43
2023-03-28T01:13:26.369Z,3.48
2023-03-28T01:15:53.776Z,3.42
2023-03-28T01:18:23.846Z,3.39
2023-03-28T01:21:02.964Z,3.33
2023-03-28T01:23:44.077Z,3.47
2023-03-28T01:26:26.999Z,3.35
2023-03-28T01:29:01.420Z,3.34
2023-03-28T01:31:46.246Z,3.30
2023-03-28T01:34:26.186Z,3.30
2023-03-28T01:37:06.695Z,3.38
2023-03-28T01:39:46.764Z,3.39
2023-03-28T01:42:20.466Z,3.42
2023-03-28T01:44:50.372Z,3.44
2023-03-28T01:47:20.516Z,3.55
2023-03-28T01:49:51.991Z,3.45
2023-03-28T01:52:23.738Z,3.37
2023-03-28T01:54:55.866Z,3.42
2023-03-28T01:57:25.881Z,3.53
2023-03-28T01:59:56.723Z,3.47
2023-03-28T02:02:27.336Z,3.44
2023-03-28T02:04:57.401Z,3.41
2023-03-28T02:07:27.097Z,3.42
2023-03-28T02:09:55.854Z,3.39
2023-03-28T02:12:25.275Z,3.44
2023-03-28T02:14:53.949Z,3.32
2023-03-28T02:17:23.411Z,3.38
2023-03-28T02:19:53.544Z,3.37
2023-03-28T02:22:24.002Z,3.40
2023-03-28T02:24:52.614Z,3.53
2023-03-28T02:27:20.958Z,3.38
2023-03-28T02:29:49.282Z,3.42
2023-03-28T02:32:16.791Z,3.46
2023-03-28T02:34:45.497Z,3.35
2023-03-28T02:37:16.889Z,3.22
2023-03-28T02:39:51.492Z,3.30
2023-03-28T02:42:39.754Z,3.24
2023-03-28T02:45:19.946Z,3.33
2023-03-28T02:47:53.175Z,3.39
2023-03-28T02:50:26.459Z,3.21
2023-03-28T02:52:56.377Z,3.04
2023-03-28T02:55:26.352Z,2.88
2023-03-28T02:57:56.714Z,2.63
2023-03-28T03:00:25.309Z,2.62
2023-03-28T03:02:52.881Z,2.45
2023-03-28T03:05:21.082Z,2.51
2023-03-28T03:07:49.657Z,2.39
2023-03-28T03:10:17.900Z,2.44
2023-03-28T03:12:45.298Z,2.44
2023-03-28T03:15:12.903Z,2.35
2023-03-28T03:17:41.682Z,2.38
2023-03-28T03:20:09.776Z,2.43
2023-03-28T03:22:37.313Z,2.63
2023-03-28T03:25:06.641Z,2.68
2023-03-28T03:27:34.483Z,2.64
2023-03-28T03:30:01.824Z,2.55
2023-03-28T03:32:29.166Z,2.61
2023-03-28T03:34:57.894Z,2.44
2023-03-28T03:37:25.225Z,2.02
2023-03-28T03:39:52.492Z,1.94
2023-03-28T03:42:19.755Z,1.55
2023-03-28T03:44:47.001Z,1.49
2023-03-28T03:47:14.961Z,1.61
2023-03-28T03:49:42.209Z,1.55
2023-03-28T03:52:10.805Z,1.58
2023-03-28T03:54:38.398Z,1.58
2023-03-28T03:57:06.162Z,1.39
2023-03-28T03:59:33.524Z,1.41
2023-03-28T04:02:00.986Z,1.46
2023-03-28T04:04:28.469Z,1.58
2023-03-28T04:06:58.049Z,1.46
2023-03-28T04:09:27.934Z,1.52
2023-03-28T04:11:55.233Z,1.60
2023-03-28T04:14:22.885Z,1.60
2023-03-28T04:16:50.771Z,1.62
2023-03-28T04:19:19.049Z,1.61
2023-03-28T04:21:48.032Z,1.79
2023-03-28T04:24:15.635Z,1.85
2023-03-28T04:26:45.923Z,1.80
2023-03-28T04:29:13.641Z,1.84
2023-03-28T04:31:40.964Z,1.76
2023-03-28T04:34:08.876Z,1.98
2023-03-28T04:36:37.604Z,1.99
2023-03-28T04:39:05.125Z,1.97
2023-03-28T04:41:33.104Z,2.14
2023-03-28T04:44:02.725Z,2.07
2023-03-28T04:46:30.433Z,2.05
2023-03-28T04:48:57.691Z,2.03
2023-03-28T04:51:25.295Z,2.01
2023-03-28T04:53:52.694Z,2.10
2023-03-28T04:56:20.071Z,2.04
2023-03-28T04:58:47.328Z,2.15
2023-03-28T05:01:15.939Z,2.06
2023-03-28T05:03:43.223Z,2.06
2023-03-28T05:06:10.760Z,1.90
2023-03-28T05:08:38.330Z,1.99
2023-03-28T05:11:05.735Z,2.03
2023-03-28T05:13:34.736Z,2.15
2023-03-28T05:16:02.037Z,2.17
2023-03-28T05:18:30.649Z,2.20
2023-03-28T05:20:58.063Z,2.20
2023-03-28T05:23:25.895Z,2.08
2023-03-28T05:25:53.690Z,2.20
2023-03-28T05:28:21.232Z,2.20
2023-03-28T05:30:48.804Z,2.15
2023-03-28T05:33:16.194Z,2.17
2023-03-28T05:35:44.902Z,2.19
2023-03-28T05:38:12.329Z,2.15
2023-03-28T05:40:39.602Z,2.12
2023-03-28T05:43:06.988Z,2.26
2023-03-28T05:45:34.307Z,2.24
2023-03-28T05:48:01.611Z,2.18
2023-03-28T05:50:29.030Z,2.27
2023-03-28T05:52:57.663Z,2.38
2023-03-28T05:55:24.975Z,2.39
2023-03-28T05:57:52.684Z,2.35
2023-03-28T06:00:20.317Z,2.42
2023-03-28T06:02:47.683Z,2.37
2023-03-28T06:05:15.076Z,2.56
2023-03-28T06:07:43.293Z,2.51
2023-03-28T06:10:13.102Z,2.41
2023-03-28T06:12:40.637Z,2.27
2023-03-28T06:15:08.373Z,2.39
2023-03-28T06:17:35.740Z,2.48
2023-03-28T06:20:04.225Z,2.47
2023-03-28T06:22:31.546Z,2.44
2023-03-28T06:24:59.224Z,2.58
2023-03-28T06:27:27.852Z,2.64
2023-03-28T06:29:55.188Z,2.43
2023-03-28T06:32:22.554Z,2.34
2023-03-28T06:34:49.907Z,2.27
2023-03-28T06:37:17.279Z,2.22
2023-03-28T06:39:44.552Z,2.33
2023-03-28T06:42:11.814Z,2.67
2023-03-28T06:44:40.705Z,3.07
2023-03-28T06:47:07.989Z,3.01
2023-03-28T06:49:35.320Z,3.00
2023-03-28T06:52:02.877Z,3.00
2023-03-28T06:54:30.468Z,2.86
2023-03-28T06:56:57.768Z,2.89
2023-03-28T06:59:25.401Z,2.93
2023-03-28T07:01:54.023Z,3.07
2023-03-28T07:04:21.338Z,2.80
2023-03-28T07:06:49.329Z,3.03
2023-03-28T07:09:16.714Z,3.12
2023-03-28T07:11:44.001Z,3.53
2023-03-28T07:14:11.272Z,3.59
2023-03-28T07:16:38.621Z,3.73
2023-03-28T07:19:07.561Z,3.63
2023-03-28T07:21:35.056Z,3.89
2023-03-28T07:24:02.383Z,4.19
2023-03-28T07:26:29.796Z,4.21
2023-03-28T07:28:57.076Z,4.13
2023-03-28T07:31:25.717Z,3.89
2023-03-28T07:33:53.051Z,3.78
2023-03-28T07:36:22.515Z,3.67
2023-03-28T07:38:49.898Z,3.64
2023-03-28T07:41:17.319Z,3.51
2023-03-28T07:43:45.006Z,3.49
2023-03-28T07:46:14.273Z,3.61
2023-03-28T07:48:42.111Z,3.92
2023-03-28T07:51:09.998Z,4.02
2023-03-28T07:53:39.018Z,4.20
2023-03-28T07:56:10.474Z,4.17
2023-03-28T07:58:38.412Z,3.83
2023-03-28T08:01:06.423Z,3.81
2023-03-28T08:03:33.865Z,3.92
2023-03-28T08:06:02.809Z,4.11
2023-03-28T08:08:30.773Z,4.33
2023-03-28T08:11:00.076Z,4.52
2023-03-28T08:13:27.640Z,4.39
2023-03-28T08:15:55.912Z,4.98
2023-03-28T08:18:25.051Z,4.61
2023-03-28T08:20:57.989Z,4.65
2023-03-28T08:23:26.488Z,4.64
2023-03-28T08:25:54.355Z,4.43
2023-03-28T08:28:22.968Z,4.42
2023-03-28T08:30:50.282Z,4.31
2023-03-28T08:33:17.613Z,4.99
2023-03-28T08:35:44.977Z,4.65
2023-03-28T08:38:13.252Z,4.20
2023-03-28T08:40:46.571Z,4.31
2023-03-28T08:43:24.506Z,4.91
2023-03-28T08:45:54.839Z,5.11
2023-03-28T08:48:27.012Z,5.06
2023-03-28T08:50:58.737Z,5.43
2023-03-28T08:53:30.274Z,5.58
2023-03-28T08:55:58.428Z,5.51
2023-03-28T08:58:28.180Z,5.59
2023-03-28T09:00:56.807Z,5.34
2023-03-28T09:03:25.158Z,5.28
2023-03-28T09:05:54.709Z,5.08
2023-03-28T09:08:29.025Z,4.60
2023-03-28T09:11:00.377Z,4.89
2023-03-28T09:13:35.446Z,5.20
2023-03-28T09:16:15.180Z,5.59
2023-03-28T09:18:51.797Z,5.27
2023-03-28T09:21:24.445Z,5.70
2023-03-28T09:24:14.423Z,5.95
2023-03-28T09:26:45.322Z,5.43
2023-03-28T09:29:14.762Z,5.42
2023-03-28T09:31:46.494Z,5.62
2023-03-28T09:34:19.839Z,5.89
2023-03-28T09:36:50.244Z,6.31
2023-03-28T09:39:23.895Z,5.94
2023-03-28T09:41:54.362Z,5.49
2023-03-28T09:44:27.051Z,5.94
2023-03-28T09:46:57.444Z,6.15
2023-03-28T09:49:25.792Z,5.96
2023-03-28T09:51:55.372Z,5.85
2023-03-28T09:54:28.582Z,5.94
2023-03-28T09:56:59.383Z,5.75
2023-03-28T09:59:28.704Z,5.80
2023-03-28T10:07:46.115Z,5.92
2023-03-28T10:10:18.463Z,5.84
2023-03-28T10:12:47.396Z,6.10
2023-03-28T10:15:30.372Z,6.73
2023-03-28T10:18:00.399Z,7.14
2023-03-28T10:20:28.088Z,6.77
2023-03-28T10:22:56.918Z,6.40
2023-03-28T10:25:34.265Z,6.62
2023-03-28T10:28:02.150Z,6.50
2023-03-28T10:30:30.711Z,6.45
2023-03-28T10:33:09.838Z,6.32
2023-03-28T10:35:41.352Z,6.15
2023-03-28T10:38:15.257Z,6.52
2023-03-28T10:40:42.732Z,6.69
2023-03-28T10:43:13.046Z,6.56
2023-03-28T10:45:42.551Z,6.44
2023-03-28T10:48:14.446Z,6.77
2023-03-28T10:50:43.176Z,6.54
2023-03-28T10:53:17.524Z,6.33
2023-03-28T10:55:48.399Z,6.40
2023-03-28T10:58:20.435Z,6.67
2023-03-28T11:00:52.384Z,6.38
2023-03-28T11:03:28.483Z,6.61
2023-03-28T11:06:08.845Z,6.75
2023-03-28T11:08:41.386Z,6.89
2023-03-28T11:11:15.227Z,6.65
2023-03-28T11:13:47.071Z,6.93
2023-03-28T11:16:19.568Z,6.92
2023-03-28T11:19:00.274Z,7.18
2023-03-28T11:21:30.467Z,7.21
2023-03-28T11:24:05.940Z,7.26
2023-03-28T11:26:39.959Z,7.73
2023-03-28T11:29:16.696Z,7.75
2023-03-28T11:31:47.482Z,7.84
2023-03-28T11:34:21.846Z,7.87
2023-03-28T11:36:53.339Z,7.97
2023-03-28T11:39:26.386Z,7.31
2023-03-28T11:41:54.673Z,7.49
2023-03-28T11:44:25.067Z,7.61
2023-03-28T11:46:56.727Z,7.63
2023-03-28T11:49:28.791Z,7.85
2023-03-28T11:51:59.736Z,8.15
2023-03-28T11:54:32.065Z,8.39
2023-03-28T11:57:02.078Z,8.24
2023-03-28T11:59:34.054Z,7.90
2023-03-28T12:02:13.274Z,7.68
2023-03-28T12:04:45.973Z,7.89
2023-03-28T12:07:18.677Z,8.30
2023-03-28T12:09:55.460Z,8.31
2023-03-28T12:12:25.096Z,8.09
2023-03-28T12:14:56.181Z,8.14
2023-03-28T12:17:26.850Z,8.12
2023-03-28T12:19:56.405Z,8.24
2023-03-28T12:22:26.913Z,8.38
2023-03-28T12:24:58.201Z,8.29
2023-03-28T12:27:29.415Z,7.73
2023-03-28T12:29:59.110Z,7.85
2023-03-28T12:32:34.454Z,8.32
2023-03-28T12:35:06.722Z,8.32
2023-03-28T12:37:39.689Z,8.43
2023-03-28T12:40:14.403Z,8.72
2023-03-28T12:42:42.929Z,8.64
2023-03-28T12:45:15.614Z,8.16
2023-03-28T12:47:44.196Z,8.01
2023-03-28T12:50:15.943Z,8.61
2023-03-28T12:52:45.403Z,8.29
2023-03-28T12:55:27.593Z,8.45
2023-03-28T12:57:56.255Z,8.77
2023-03-28T13:00:26.738Z,8.98
2023-03-28T13:02:56.396Z,9.02
2023-03-28T13:05:27.336Z,9.07
2023-03-28T13:08:01.356Z,8.43
2023-03-28T13:10:34.349Z,8.64
2023-03-28T13:13:08.633Z,8.74
2023-03-28T13:15:49.313Z,8.51
2023-03-28T13:18:27.759Z,8.71
2023-03-28T13:20:56.684Z,9.01
2023-03-28T13:23:29.097Z,8.89
2023-03-28T13:25:57.249Z,8.83
2023-03-28T13:28:30.020Z,8.96
2023-03-28T13:31:08.010Z,8.77
2023-03-28T13:33:37.245Z,8.09
2023-03-28T13:36:19.943Z,7.85
2023-03-28T13:38:48.140Z,8.15
2023-03-28T13:41:33.150Z,8.64
2023-03-28T13:44:01.802Z,9.00
2023-03-28T13:46:31.628Z,9.26
2023-03-28T13:49:02.753Z,9.22
2023-03-28T13:51:33.756Z,9.17
2023-03-28T13:54:01.216Z,9.09
2023-03-28T13:56:30.088Z,8.86
2023-03-28T13:58:58.672Z,8.44
2023-03-28T14:01:27.361Z,8.30
2023-03-28T14:03:56.162Z,8.20
2023-03-28T14:06:25.089Z,8.28
2023-03-28T14:08:54.956Z,8.28
2023-03-28T14:11:23.766Z,8.26
2023-03-28T14:13:52.633Z,8.18
2023-03-28T14:16:20.653Z,7.97
2023-03-28T14:18:50.431Z,8.22
2023-03-28T14:21:17.750Z,8.57
2023-03-28T14:23:54.271Z,8.59
2023-03-28T14:26:23.578Z,8.53
2023-03-28T14:28:52.322Z,8.91
2023-03-28T14:31:29.561Z,8.68
2023-03-28T14:33:58.392Z,8.68
2023-03-28T14:36:30.650Z,8.53
2023-03-28T14:39:07.313Z,8.53
2023-03-28T14:41:37.473Z,8.49
2023-03-28T14:44:06.567Z,8.60
2023-03-28T14:46:34.092Z,8.67
2023-03-28T14:49:02.876Z,8.66
2023-03-28T14:51:39.679Z,8.60
2023-03-28T14:54:08.325Z,8.67
2023-03-28T14:56:37.278Z,8.59
2023-03-28T14:59:05.487Z,8.73
2023-03-28T15:01:34.207Z,9.09
2023-03-28T15:04:04.044Z,8.96
2023-03-28T15:06:33.194Z,9.34
2023-03-28T15:09:02.072Z,9.24
2023-03-28T15:11:32.465Z,9.09
2023-03-28T15:14:02.688Z,8.97
2023-03-28T15:16:31.284Z,8.94
2023-03-28T15:19:00.209Z,8.52
2023-03-28T15:21:27.722Z,8.47
2023-03-28T15:23:57.228Z,8.46
2023-03-28T15:26:27.726Z,8.30
2023-03-28T15:28:56.167Z,8.44
2023-03-28T15:31:25.337Z,8.29
2023-03-28T15:33:53.362Z,8.43
2023-03-28T15:36:23.458Z,8.57
2023-03-28T15:38:51.553Z,8.36
2023-03-28T15:41:21.597Z,8.55
2023-03-28T15:43:59.368Z,8.64
2023-03-28T15:46:32.018Z,8.58
2023-03-28T15:49:00.716Z,8.64
2023-03-28T15:51:28.584Z,8.51
2023-03-28T15:53:58.700Z,8.45
2023-03-28T15:56:26.964Z,8.44
2023-03-28T15:59:01.763Z,8.43
2023-03-28T16:01:31.162Z,8.18
2023-03-28T16:04:16.988Z,7.90
2023-03-28T16:06:45.507Z,7.89
2023-03-28T16:09:18.094Z,7.78
2023-03-28T16:11:45.897Z,7.81
2023-03-28T16:14:14.498Z,7.92
2023-03-28T16:16:43.275Z,8.03
2023-03-28T16:19:14.456Z,8.03
2023-03-28T16:21:41.710Z,7.97
2023-03-28T16:24:08.970Z,7.88
2023-03-28T16:26:36.277Z,8.10
2023-03-28T16:29:04.149Z,8.06
2023-03-28T16:31:31.610Z,7.79
2023-03-28T16:34:00.571Z,7.88
2023-03-28T16:36:27.841Z,7.84
2023-03-28T16:38:55.138Z,7.71
2023-03-28T16:41:22.523Z,7.64
2023-03-28T16:43:49.789Z,7.57
2023-03-28T16:46:17.086Z,7.68
2023-03-28T16:48:44.520Z,7.52
2023-03-28T16:51:13.138Z,7.48
2023-03-28T16:53:41.031Z,7.50
2023-03-28T16:56:11.825Z,7.34
2023-03-28T16:58:39.175Z,7.18
2023-03-28T17:01:07.279Z,7.25
2023-03-28T17:03:34.817Z,7.20
2023-03-28T17:06:02.677Z,7.11
2023-03-28T17:08:31.387Z,7.00
2023-03-28T17:10:59.923Z,6.97
2023-03-28T17:13:27.268Z,7.05
2023-03-28T17:15:54.580Z,6.84
2023-03-28T17:18:22.045Z,7.02
2023-03-28T17:20:58.684Z,6.87
2023-03-28T17:23:27.308Z,6.77
2023-03-28T17:25:56.374Z,7.03
2023-03-28T17:28:23.996Z,6.76
2023-03-28T17:30:51.942Z,6.77
2023-03-28T17:33:19.603Z,6.85
2023-03-28T17:35:47.174Z,6.72
2023-03-28T17:38:14.774Z,6.46
2023-03-28T17:40:46.689Z,6.70
2023-03-28T17:43:15.347Z,6.71
2023-03-28T17:45:42.680Z,6.63
2023-03-28T17:48:12.346Z,6.17
2023-03-28T17:50:39.768Z,6.43
2023-03-28T17:53:07.696Z,6.52
2023-03-28T17:55:38.856Z,6.41
2023-03-28T17:58:06.184Z,6.48
2023-03-28T18:00:34.755Z,6.52
2023-03-28T18:03:02.096Z,6.39
2023-03-28T18:05:30.297Z,6.46
2023-03-28T18:07:57.633Z,6.36
2023-03-28T18:10:24.986Z,6.37
2023-03-28T18:12:52.576Z,6.20
2023-03-28T18:15:19.825Z,6.07
2023-03-28T18:17:48.420Z,5.99
2023-03-28T18:20:15.792Z,6.02
2023-03-28T18:22:43.319Z,6.21
2023-03-28T18:25:10.711Z,5.83
2023-03-28T18:27:38.148Z,5.99
2023-03-28T18:30:08.162Z,5.65
2023-03-28T18:32:36.253Z,5.78
2023-03-28T18:35:07.069Z,5.81
2023-03-28T18:37:34.760Z,5.65
2023-03-28T18:40:02.384Z,5.39
2023-03-28T18:42:31.308Z,5.36
2023-03-28T18:44:58.577Z,5.67
2023-03-28T18:47:25.965Z,5.27
2023-03-28T18:49:53.229Z,5.37
2023-03-28T18:52:21.809Z,5.13
2023-03-28T18:54:49.224Z,5.38
2023-03-28T18:57:16.895Z,5.30
2023-03-28T18:59:44.232Z,5.00
2023-03-28T19:02:12.619Z,5.06
2023-03-28T19:04:39.955Z,5.03
2023-03-28T19:07:07.470Z,5.09
2023-03-28T19:09:36.125Z,5.19
2023-03-28T19:12:03.895Z,4.80
2023-03-28T19:14:31.274Z,4.76
2023-03-28T19:16:58.776Z,4.66
2023-03-28T19:19:27.018Z,4.84
2023-03-28T19:21:55.091Z,4.58
2023-03-28T19:24:23.317Z,4.69
2023-03-28T19:26:53.166Z,4.56
2023-03-28T19:29:20.655Z,4.80
2023-03-28T19:31:47.928Z,4.77
2023-03-28T19:34:16.496Z,4.60
2023-03-28T19:36:43.818Z,4.79
2023-03-28T19:39:11.107Z,4.65
2023-03-28T19:41:38.505Z,4.75
2023-03-28T19:44:07.156Z,4.68
2023-03-28T19:46:36.345Z,4.69
2023-03-28T19:49:06.898Z,4.39
2023-03-28T19:51:34.553Z,4.14
2023-03-28T19:54:02.041Z,4.21
2023-03-28T19:56:29.370Z,4.34
2023-03-28T19:58:56.850Z,4.14
2023-03-28T20:01:25.605Z,4.03
2023-03-28T20:03:53.426Z,4.23
2023-03-28T20:06:21.467Z,3.97
2023-03-28T20:08:49.085Z,4.11
2023-03-28T20:11:16.790Z,3.93
2023-03-28T20:13:44.380Z,3.98
2023-03-28T20:16:12.842Z,4.02
2023-03-28T20:18:41.787Z,4.09
2023-03-28T20:21:10.185Z,3.93
2023-03-28T20:23:38.073Z,3.86
2023-03-28T20:26:15.702Z,3.88
2023-03-28T20:28:46.154Z,3.73
2023-03-28T20:31:13.640Z,3.90
2023-03-28T20:33:42.542Z,3.69
2023-03-28T20:36:09.967Z,3.73
2023-03-28T20:38:37.349Z,3.92
2023-03-28T20:41:04.860Z,3.84
2023-03-28T20:43:35.725Z,3.84
2023-03-28T20:46:03.165Z,3.76
2023-03-28T20:48:36.228Z,3.73
2023-03-28T20:51:05.906Z,4.01
2023-03-28T20:53:34.719Z,4.01
2023-03-28T20:56:03.340Z,3.84
2023-03-28T20:58:31.617Z,3.84
2023-03-28T21:01:00.416Z,3.80
2023-03-28T21:03:39.311Z,3.79
2023-03-28T21:06:08.625Z,3.69
2023-03-28T21:08:36.776Z,3.83
2023-03-28T21:11:04.170Z,3.92
2023-03-28T21:13:31.501Z,3.85
2023-03-28T21:15:58.839Z,3.63
2023-03-28T21:18:26.153Z,3.65
2023-03-28T21:20:53.457Z,3.69
2023-03-28T21:23:22.560Z,3.79
2023-03-28T21:25:52.782Z,3.60
2023-03-28T21:28:20.371Z,3.60
2023-03-28T21:30:56.764Z,3.55
2023-03-28T21:33:24.557Z,3.68
2023-03-28T21:35:52.081Z,3.57
2023-03-28T21:38:19.775Z,3.58
2023-03-28T21:40:48.910Z,3.54
2023-03-28T21:43:16.318Z,3.49
2023-03-28T21:45:47.738Z,3.48
2023-03-28T21:48:15.663Z,3.47
2023-03-28T21:50:48.430Z,3.46
2023-03-28T21:53:15.917Z,3.44
2023-03-28T21:55:43.217Z,3.34
2023-03-28T21:58:11.802Z,3.47
2023-03-28T22:00:39.638Z,3.41
2023-03-28T22:03:07.490Z,3.31
2023-03-28T22:05:34.846Z,3.14
2023-03-28T22:08:02.412Z,3.08
2023-03-28T22:10:29.747Z,3.16
2023-03-28T22:12:58.682Z,3.08
2023-03-28T22:15:27.353Z,3.17
2023-03-28T22:17:57.850Z,3.06
2023-03-28T22:20:26.534Z,3.19
2023-03-28T22:22:53.793Z,3.17
2023-03-28T22:25:22.466Z,3.10
2023-03-28T22:27:49.811Z,3.10
2023-03-28T22:30:17.083Z,3.02
2023-03-28T22:32:45.869Z,3.02
2023-03-28T22:35:13.166Z,3.00
2023-03-28T22:37:40.709Z,3.01
2023-03-28T22:40:08.792Z,3.08
2023-03-28T22:42:36.710Z,3.29
2023-03-28T22:45:04.565Z,3.14
2023-03-28T22:47:39.113Z,3.21
2023-03-28T22:50:08.996Z,3.20
2023-03-28T22:52:37.887Z,3.33
2023-03-28T22:55:05.657Z,3.34
2023-03-28T22:57:32.975Z,3.34
2023-03-28T23:00:01.737Z,3.38
2023-03-28T23:02:29.114Z,3.39
2023-03-28T23:04:57.060Z,3.36
2023-03-28T23:07:27.550Z,3.38
2023-03-28T23:09:54.868Z,3.38
2023-03-28T23:12:22.446Z,3.35
2023-03-28T23:14:50.168Z,3.42
2023-03-28T23:17:18.931Z,3.33
2023-03-28T23:19:48.170Z,3.29
2023-03-28T23:22:18.553Z,3.30
2023-03-28T23:24:50.411Z,3.33
2023-03-28T23:27:17.767Z,3.35
2023-03-28T23:29:45.195Z,3.39
2023-03-28T23:32:12.466Z,3.36
2023-03-28T23:34:40.238Z,3.31
2023-03-28T23:37:09.932Z,3.26
2023-03-28T23:39:39.231Z,3.22
2023-03-28T23:42:07.805Z,3.24
2023-03-28T23:44:35.363Z,3.40
2023-03-28T23:47:02.626Z,3.39
2023-03-28T23:49:29.916Z,3.41
2023-03-28T23:51:57.203Z,3.35
2023-03-28T23:54:25.299Z,3.46
2023-03-28T23:56:52.663Z,3.58
2023-03-28T23:59:21.772Z,3.48
